createdAt,value
2023-05-06T00:00:31.392Z,70.58
2023-05-06T00:05:32.796Z,70.67
2023-05-06T00:10:34.465Z,70.53
2023-05-06T00:15:36.485Z,70.81
2023-05-06T00:20:37.871Z,71.23
2023-05-06T00:25:39.271Z,71.38
2023-05-06T00:30:40.674Z,70.84
2023-05-06T00:35:42.033Z,70.87
2023-05-06T00:40:43.378Z,71.03
2023-05-06T00:45:44.901Z,70.97
2023-05-06T00:50:46.383Z,71.09
2023-05-06T00:55:49.736Z,70.97
2023-05-06T01:00:52.194Z,71.13
2023-05-06T01:06:15.857Z,71.11
2023-05-06T01:11:24.195Z,71.24
2023-05-06T01:16:29.391Z,71.06
2023-05-06T01:21:34.700Z,71.32
2023-05-06T01:26:36.103Z,71.24
2023-05-06T01:31:45.606Z,71.06
2023-05-06T01:37:17.910Z,71.36
2023-05-06T01:42:21.645Z,71.22
2023-05-06T01:47:24.098Z,71.39
2023-05-06T01:52:26.447Z,71.55
2023-05-06T01:57:28.505Z,71.57
2023-05-06T02:02:31.321Z,71.43
2023-05-06T02:07:32.687Z,71.40
2023-05-06T02:12:34.287Z,71.61
2023-05-06T02:17:37.173Z,71.57
2023-05-06T02:22:38.553Z,71.76
2023-05-06T02:27:40.003Z,71.51
2023-05-06T02:32:41.632Z,71.83
2023-05-06T02:37:42.997Z,71.71
2023-05-06T02:42:44.501Z,71.70
2023-05-06T02:47:45.934Z,71.82
2023-05-06T02:52:47.271Z,71.76
2023-05-06T02:57:48.741Z,72.00
2023-05-06T03:02:50.237Z,71.77
2023-05-06T03:07:51.662Z,72.00
2023-05-06T03:12:53.102Z,71.96
2023-05-06T03:17:54.549Z,71.65
2023-05-06T03:22:56.355Z,72.05
2023-05-06T03:27:57.702Z,71.96
2023-05-06T03:33:02.029Z,71.64
2023-05-06T03:38:03.474Z,71.64
2023-05-06T03:43:04.905Z,71.73
2023-05-06T03:48:06.416Z,71.99
2023-05-06T03:53:08.131Z,72.10
2023-05-06T03:58:09.539Z,71.88
2023-05-06T04:03:11.180Z,71.57
2023-05-06T04:08:12.571Z,71.73
2023-05-06T04:13:14.067Z,71.65
2023-05-06T04:18:19.201Z,71.68
2023-05-06T04:23:20.997Z,71.57
2023-05-06T04:28:22.374Z,72.09
2023-05-06T04:33:24.991Z,72.10
2023-05-06T04:38:30.381Z,71.95
2023-05-06T04:43:32.680Z,71.54
2023-05-06T04:48:34.098Z,71.84
2023-05-06T04:53:35.702Z,71.78
2023-05-06T04:58:37.086Z,71.38
2023-05-06T05:03:38.574Z,71.78
2023-05-06T05:08:39.995Z,71.42
2023-05-06T05:13:41.320Z,71.38
2023-05-06T05:18:42.895Z,71.27
2023-05-06T05:23:44.233Z,71.52
2023-05-06T05:28:45.602Z,71.40
2023-05-06T05:33:47.062Z,71.49
2023-05-06T05:38:48.845Z,71.33
2023-05-06T05:43:50.184Z,71.26
2023-05-06T05:48:51.564Z,71.31
2023-05-06T05:53:53.250Z,70.98
2023-05-06T05:58:54.624Z,71.03
2023-05-06T06:03:56.433Z,70.87
2023-05-06T06:08:58.842Z,70.65
2023-05-06T06:14:00.270Z,70.55
2023-05-06T06:19:01.765Z,70.33
2023-05-06T06:24:03.333Z,70.05
2023-05-06T06:29:04.687Z,70.02
2023-05-06T06:34:06.513Z,69.01
2023-05-06T06:39:08.382Z,69.16
2023-05-06T06:44:09.701Z,68.70
2023-05-06T06:49:11.118Z,68.49
2023-05-06T06:54:12.480Z,67.88
2023-05-06T06:59:14.006Z,67.87
2023-05-06T07:04:15.388Z,67.36
2023-05-06T07:09:16.941Z,67.35
2023-05-06T07:14:18.271Z,66.68
2023-05-06T07:19:19.633Z,66.61
2023-05-06T07:24:21.102Z,65.96
2023-05-06T07:29:22.476Z,65.53
2023-05-06T07:34:23.861Z,64.42
2023-05-06T07:39:25.227Z,64.12
2023-05-06T07:44:26.622Z,63.66
2023-05-06T07:49:30.447Z,63.41
2023-05-06T07:54:31.948Z,62.69
2023-05-06T07:59:33.365Z,62.43
2023-05-06T08:04:34.866Z,61.67
2023-05-06T08:09:36.408Z,61.28
2023-05-06T08:14:37.821Z,60.26
2023-05-06T08:19:39.166Z,59.26
2023-05-06T08:24:40.570Z,58.62
2023-05-06T08:29:41.902Z,57.52
2023-05-06T08:34:43.307Z,57.10
2023-05-06T08:39:45.664Z,56.32
2023-05-06T08:44:47.413Z,55.72
2023-05-06T08:49:49.168Z,55.14
2023-05-06T08:54:54.448Z,54.12
2023-05-06T08:59:56.686Z,53.59
2023-05-06T09:04:59.520Z,53.48
2023-05-06T09:10:05.502Z,52.38
2023-05-06T09:15:09.724Z,51.98
2023-05-06T09:20:12.484Z,51.30
2023-05-06T09:25:14.114Z,50.29
2023-05-06T09:30:15.659Z,50.13
2023-05-06T09:35:17.381Z,49.80
2023-05-06T09:40:18.750Z,49.25
2023-05-06T09:45:21.400Z,48.47
2023-05-06T09:50:23.537Z,47.23
2023-05-06T09:55:27.122Z,46.57
2023-05-06T10:00:30.272Z,45.11
2023-05-06T10:05:33.434Z,44.83
2023-05-06T10:10:35.103Z,44.71
2023-05-06T10:15:38.450Z,44.57
2023-05-06T10:20:42.114Z,43.89
2023-05-06T10:25:45.530Z,43.82
2023-05-06T10:30:48.269Z,42.81
2023-05-06T10:35:59.429Z,42.22
2023-05-06T10:41:01.373Z,42.17
2023-05-06T10:46:09.631Z,42.31
2023-05-06T10:51:13.701Z,41.66
2023-05-06T10:56:15.241Z,41.31
2023-05-06T11:01:16.816Z,41.77
2023-05-06T11:06:48.108Z,41.42
2023-05-06T11:12:01.801Z,41.34
2023-05-06T11:17:28.669Z,41.18
2023-05-06T11:22:40.108Z,41.93
2023-05-06T11:27:41.831Z,39.94
2023-05-06T11:32:43.837Z,40.14
2023-05-06T11:37:45.260Z,39.49
2023-05-06T11:42:46.647Z,37.14
2023-05-06T11:47:48.066Z,34.47
2023-05-06T11:52:49.488Z,33.81
2023-05-06T11:57:53.087Z,32.56
2023-05-06T12:02:56.316Z,30.58
2023-05-06T12:07:57.868Z,32.27
2023-05-06T12:12:59.522Z,33.26
2023-05-06T12:18:02.146Z,33.50
2023-05-06T12:23:13.508Z,33.68
2023-05-06T12:28:19.124Z,34.18
2023-05-06T12:33:20.762Z,34.26
2023-05-06T12:38:22.283Z,33.40
2023-05-06T12:43:32.691Z,32.01
2023-05-06T12:48:34.705Z,31.09
2023-05-06T12:53:36.225Z,30.55
2023-05-06T12:58:38.528Z,29.45
2023-05-06T13:03:40.947Z,29.72
2023-05-06T13:08:42.535Z,28.52
2023-05-06T13:13:43.899Z,29.16
2023-05-06T13:18:45.251Z,27.80
2023-05-06T13:23:47.775Z,28.38
2023-05-06T13:28:49.151Z,27.36
2023-05-06T13:33:50.558Z,27.09
2023-05-06T13:38:51.954Z,27.39
2023-05-06T13:43:53.361Z,28.04
2023-05-06T13:48:54.759Z,28.29
2023-05-06T13:53:56.170Z,28.84
2023-05-06T13:58:57.509Z,29.17
2023-05-06T14:03:58.879Z,27.68
2023-05-06T14:09:00.334Z,26.77
2023-05-06T14:14:02.329Z,26.59
2023-05-06T14:19:04.633Z,26.08
2023-05-06T14:24:07.740Z,25.36
2023-05-06T14:29:09.407Z,25.51
2023-05-06T14:34:11.309Z,26.11
2023-05-06T14:39:13.113Z,25.57
2023-05-06T14:44:15.186Z,26.34
2023-05-06T14:49:16.602Z,26.02
2023-05-06T14:54:17.967Z,25.83
2023-05-06T14:59:19.308Z,25.73
2023-05-06T15:04:20.662Z,27.05
2023-05-06T15:09:22.139Z,27.58
2023-05-06T15:14:23.540Z,28.10
2023-05-06T15:19:24.924Z,29.06
2023-05-06T15:24:26.573Z,29.46
2023-05-06T15:29:28.473Z,30.33
2023-05-06T15:34:29.821Z,31.30
2023-05-06T15:39:36.722Z,31.68
2023-05-06T15:44:38.180Z,32.93
2023-05-06T15:54:49.396Z,34.78
2023-05-06T15:59:51.421Z,35.20
2023-05-06T16:04:52.971Z,35.32
2023-05-06T16:09:54.550Z,35.74
2023-05-06T16:14:55.905Z,35.60
2023-05-06T16:19:57.314Z,36.17
2023-05-06T16:24:58.651Z,36.46
2023-05-06T16:30:00.197Z,36.74
2023-05-06T16:35:01.592Z,36.85
2023-05-06T16:40:04.328Z,37.34
2023-05-06T16:45:07.051Z,37.61
2023-05-06T16:50:08.725Z,38.65
2023-05-06T16:55:10.725Z,38.90
2023-05-06T17:00:12.932Z,39.75
2023-05-06T17:05:15.431Z,39.67
2023-05-06T17:10:16.899Z,39.84
2023-05-06T17:15:18.381Z,39.91
2023-05-06T17:20:20.027Z,39.99
2023-05-06T17:25:21.451Z,40.01
2023-05-06T17:30:22.906Z,40.45
2023-05-06T17:35:24.365Z,41.06
2023-05-06T17:40:25.725Z,41.19
2023-05-06T17:45:28.286Z,41.96
2023-05-06T17:50:29.934Z,42.26
2023-05-06T17:55:31.893Z,42.70
2023-05-06T18:00:33.479Z,43.06
2023-05-06T18:05:34.830Z,42.84
2023-05-06T18:10:36.287Z,43.45
2023-05-06T18:15:37.625Z,43.23
2023-05-06T18:20:39.790Z,43.66
2023-05-06T18:25:41.219Z,43.93
2023-05-06T18:30:42.560Z,44.06
2023-05-06T18:35:43.907Z,43.99
2023-05-06T18:40:47.208Z,44.19
2023-05-06T18:45:48.684Z,44.85
2023-05-06T18:50:50.885Z,45.61
2023-05-06T18:55:52.281Z,46.43
2023-05-06T19:00:55.285Z,46.81
2023-05-06T19:05:58.885Z,46.80
2023-05-06T19:11:01.115Z,47.18
2023-05-06T19:16:02.532Z,46.92
2023-05-06T19:21:04.431Z,47.18
2023-05-06T19:26:06.795Z,47.38
2023-05-06T19:31:10.395Z,47.27
2023-05-06T19:36:11.844Z,47.77
2023-05-06T19:41:13.445Z,48.01
2023-05-06T19:46:15.961Z,48.10
2023-05-06T19:51:17.448Z,49.03
2023-05-06T19:56:19.579Z,49.32
2023-05-06T20:01:23.604Z,49.61
2023-05-06T20:06:25.002Z,50.30
2023-05-06T20:11:26.447Z,50.65
2023-05-06T20:16:27.846Z,50.68
2023-05-06T20:21:29.277Z,51.53
2023-05-06T20:26:30.724Z,52.08
2023-05-06T20:31:32.180Z,52.29
2023-05-06T20:36:34.925Z,52.81
2023-05-06T20:41:36.342Z,53.09
2023-05-06T20:46:37.696Z,53.25
2023-05-06T20:51:39.034Z,53.43
2023-05-06T20:56:40.518Z,53.67
2023-05-06T21:01:41.956Z,53.67
2023-05-06T21:06:43.299Z,53.68
2023-05-06T21:11:44.880Z,53.69
2023-05-06T21:16:46.209Z,53.67
2023-05-06T21:21:47.590Z,53.51
2023-05-06T21:26:48.941Z,53.21
2023-05-06T21:31:50.269Z,53.22
2023-05-06T21:36:51.643Z,53.39
2023-05-06T21:41:52.993Z,53.39
2023-05-06T21:46:54.463Z,53.39
2023-05-06T21:51:56.154Z,53.46
2023-05-06T21:56:57.485Z,53.34
2023-05-06T22:01:58.814Z,53.17
2023-05-06T22:07:00.296Z,53.12
2023-05-06T22:12:06.414Z,53.13
2023-05-06T22:17:07.955Z,53.08
2023-05-06T22:22:09.349Z,53.07
2023-05-06T22:27:11.176Z,53.06
2023-05-06T22:32:12.556Z,53.13
2023-05-06T22:37:13.975Z,53.28
2023-05-06T22:42:15.576Z,53.45
2023-05-06T22:47:16.956Z,53.53
2023-05-06T22:52:19.322Z,53.58
2023-05-06T22:57:23.118Z,53.52
2023-05-06T23:02:24.563Z,54.34
2023-05-06T23:07:25.934Z,54.26
2023-05-06T23:12:32.166Z,54.03
2023-05-06T23:17:33.569Z,53.57
2023-05-06T23:22:35.228Z,54.00
2023-05-06T23:27:36.985Z,54.38
2023-05-06T23:32:38.639Z,54.76
2023-05-06T23:37:40.060Z,55.17
2023-05-06T23:42:41.502Z,55.44
2023-05-06T23:47:42.862Z,55.58
2023-05-06T23:52:44.272Z,55.86
2023-05-06T23:57:45.739Z,56.07
